Time;durP1;ratioP1;P1;durP2;ratioP2;P2;SDS_P1;SDS_P2;PMS_P1;PMS_P2;Temp;Humidity;BMP_temperature;BMP_pressure;BME280_temperature;BME280_humidity;BME280_pressure;Samples;Min_cycle;Max_cycle;Signal;HPM_P1;HPM_P2
2022/11/14 00:00:05;;;;;;;36.50;24.03;;;;;;;;;;5034448;28;20285;-64
2022/11/14 00:02:31;;;;;;;38.77;24.63;;;;;;;;;;5034500;28;20220;-64
2022/11/14 00:04:56;;;;;;;38.97;24.20;;;;;;;;;;5034020;28;20689;-64
2022/11/14 00:07:21;;;;;;;38.90;25.03;;;;;;;;;;5034211;28;20299;-64
2022/11/14 00:09:47;;;;;;;40.73;25.63;;;;;;;;;;5034581;28;20216;-64
2022/11/14 00:12:12;;;;;;;41.60;25.97;;;;;;;;;;5033180;28;20228;-64
2022/11/14 00:14:37;;;;;;;41.88;26.77;;;;;;;;;;5033564;28;20670;-64
2022/11/14 00:17:03;;;;;;;41.20;25.60;;;;;;;;;;5016151;28;20240;-64
2022/11/14 00:19:28;;;;;;;41.33;25.03;;;;;;;;;;5033726;28;20218;-64
2022/11/14 00:21:53;;;;;;;42.27;26.20;;;;;;;;;;5034395;28;20707;-64
2022/11/14 00:24:19;;;;;;;41.23;26.00;;;;;;;;;;5033498;28;20263;-65
2022/11/14 00:26:44;;;;;;;45.13;27.10;;;;;;;;;;5033433;28;20219;-64
2022/11/14 00:29:10;;;;;;;41.70;25.83;;;;;;;;;;5021185;28;20219;-65
2022/11/14 00:31:35;;;;;;;45.77;28.13;;;;;;;;;;5023795;28;20243;-64
2022/11/14 00:34:00;;;;;;;45.20;27.27;;;;;;;;;;5023361;28;20214;-64
2022/11/14 00:36:25;;;;;;;44.53;27.73;;;;;;;;;;5016487;28;20469;-64
2022/11/14 00:38:51;;;;;;;40.83;26.13;;;;;;;;;;5014253;28;20311;-64
2022/11/14 00:41:16;;;;;;;46.07;28.20;;;;;;;;;;5015229;28;20232;-63
2022/11/14 00:43:42;;;;;;;48.70;28.60;;;;;;;;;;5009348;28;21269;-64
2022/11/14 00:46:07;;;;;;;45.67;28.83;;;;;;;;;;5022216;28;20212;-63
2022/11/14 00:48:32;;;;;;;44.70;27.50;;;;;;;;;;5024379;28;20212;-64
2022/11/14 00:50:58;;;;;;;44.80;27.20;;;;;;;;;;5024363;28;20623;-63
2022/11/14 00:53:23;;;;;;;50.67;29.63;;;;;;;;;;5022739;28;21119;-64
2022/11/14 00:55:48;;;;;;;43.33;27.07;;;;;;;;;;5023891;28;20227;-63
2022/11/14 00:58:13;;;;;;;49.07;29.50;;;;;;;;;;5020382;28;20264;-63
2022/11/14 01:00:39;;;;;;;50.93;28.97;;;;;;;;;;5015762;28;20223;-63
2022/11/14 01:03:04;;;;;;;46.37;28.00;;;;;;;;;;5015020;28;20219;-63
2022/11/14 01:05:29;;;;;;;50.30;30.20;;;;;;;;;;5019006;28;20569;-63
2022/11/14 01:07:56;;;;;;;48.30;28.43;;;;;;;;;;5023029;28;20204;-64
2022/11/14 01:10:22;;;;;;;49.00;29.23;;;;;;;;;;5023343;28;20211;-63
2022/11/14 01:12:47;;;;;;;49.53;29.30;;;;;;;;;;5023370;28;20212;-64
2022/11/14 01:15:12;;;;;;;47.27;27.83;;;;;;;;;;5022605;28;20218;-64
2022/11/14 01:17:38;;;;;;;46.53;28.20;;;;;;;;;;5023458;28;20220;-64
2022/11/14 01:20:04;;;;;;;46.07;28.13;;;;;;;;;;5022817;28;20219;-64
2022/11/14 01:22:29;;;;;;;50.70;29.63;;;;;;;;;;5015457;28;20215;-63
2022/11/14 01:24:57;;;;;;;51.03;28.90;;;;;;;;;;5015430;28;20231;-63
2022/11/14 01:27:22;;;;;;;48.57;28.57;;;;;;;;;;5015196;28;20584;-63
2022/11/14 01:29:47;;;;;;;51.90;29.33;;;;;;;;;;5022455;28;20211;-63
2022/11/14 01:32:13;;;;;;;50.40;29.03;;;;;;;;;;5023046;28;20277;-63
2022/11/14 01:34:38;;;;;;;49.80;28.57;;;;;;;;;;5023561;28;20251;-64
2022/11/14 01:37:03;;;;;;;51.03;29.10;;;;;;;;;;5021804;28;20362;-63
2022/11/14 01:39:29;;;;;;;49.33;29.40;;;;;;;;;;5023390;28;20207;-63
2022/11/14 01:41:54;;;;;;;48.53;28.33;;;;;;;;;;5022791;28;20215;-63
2022/11/14 01:44:37;;;;;;;52.07;29.50;;;;;;;;;;5016857;28;20222;-63
2022/11/14 01:47:03;;;;;;;53.50;28.53;;;;;;;;;;4988747;28;20692;-63
2022/11/14 01:49:32;;;;;;;51.37;30.07;;;;;;;;;;5014861;28;20361;-63
2022/11/14 01:52:00;;;;;;;48.23;27.93;;;;;;;;;;5020445;28;20671;-63
2022/11/14 01:54:27;;;;;;;54.40;29.47;;;;;;;;;;5021420;28;20216;-63
2022/11/14 01:56:54;;;;;;;53.77;29.00;;;;;;;;;;5021074;28;20244;-63
2022/11/14 01:59:20;;;;;;;51.73;28.73;;;;;;;;;;5022341;28;20265;-63
2022/11/14 02:01:47;;;;;;;50.10;27.83;;;;;;;;;;5022697;28;20274;-64
2022/11/14 02:04:14;;;;;;;53.27;28.40;;;;;;;;;;5020596;28;20203;-63
2022/11/14 02:06:39;;;;;;;54.73;28.17;;;;;;;;;;5017370;28;20223;-63
2022/11/14 02:09:05;;;;;;;51.73;29.00;;;;;;;;;;5012969;28;20212;-63
2022/11/14 02:11:31;;;;;;;57.23;29.97;;;;;;;;;;5013938;28;20500;-63
2022/11/14 02:13:57;;;;;;;52.07;28.63;;;;;;;;;;5019166;28;20211;-63
2022/11/14 02:16:23;;;;;;;50.73;28.07;;;;;;;;;;5022019;28;20695;-63
2022/11/14 02:18:48;;;;;;;51.40;28.37;;;;;;;;;;5022551;28;20300;-63
2022/11/14 02:21:14;;;;;;;50.80;27.63;;;;;;;;;;5021956;28;20216;-63
2022/11/14 02:23:39;;;;;;;52.27;28.57;;;;;;;;;;5022955;28;20314;-63
2022/11/14 02:26:04;;;;;;;49.90;28.23;;;;;;;;;;5021478;28;20710;-63
2022/11/14 02:28:29;;;;;;;55.03;29.40;;;;;;;;;;5020031;28;20797;-63
2022/11/14 02:30:55;;;;;;;55.17;28.27;;;;;;;;;;5014899;28;20220;-63
2022/11/14 02:33:20;;;;;;;57.27;29.77;;;;;;;;;;5013758;28;20219;-63
2022/11/14 02:35:45;;;;;;;61.47;30.00;;;;;;;;;;5014734;28;20230;-63
2022/11/14 02:38:10;;;;;;;58.30;30.33;;;;;;;;;;5025640;28;20222;-64
2022/11/14 02:40:36;;;;;;;57.53;30.23;;;;;;;;;;5025923;28;20219;-63
2022/11/14 02:43:01;;;;;;;53.60;27.87;;;;;;;;;;5029088;28;20227;-63
2022/11/14 02:45:26;;;;;;;55.28;28.48;;;;;;;;;;5043421;28;20211;-63
2022/11/14 02:47:52;;;;;;;49.50;26.83;;;;;;;;;;5037543;28;20582;-63
2022/11/14 02:50:17;;;;;;;53.00;27.67;;;;;;;;;;5035874;28;20793;-63
2022/11/14 02:52:42;;;;;;;52.03;27.47;;;;;;;;;;5035294;28;20303;-63
2022/11/14 02:55:08;;;;;;;49.10;26.47;;;;;;;;;;5035478;28;20265;-63
2022/11/14 02:57:33;;;;;;;53.27;28.97;;;;;;;;;;5035926;28;20564;-63
2022/11/14 02:59:58;;;;;;;45.53;26.83;;;;;;;;;;5035060;28;20623;-63
2022/11/14 03:02:23;;;;;;;54.97;27.90;;;;;;;;;;5035407;28;20227;-63
2022/11/14 03:04:49;;;;;;;49.73;26.43;;;;;;;;;;5036068;28;20219;-63
2022/11/14 03:07:14;;;;;;;45.70;26.47;;;;;;;;;;5034730;28;20663;-63
2022/11/14 03:09:39;;;;;;;50.40;26.97;;;;;;;;;;5035935;28;20220;-63
2022/11/14 03:12:05;;;;;;;46.23;26.07;;;;;;;;;;5035219;28;20579;-63
2022/11/14 03:14:30;;;;;;;49.80;26.57;;;;;;;;;;5034801;28;20200;-63
2022/11/14 03:16:55;;;;;;;50.70;25.80;;;;;;;;;;5017857;28;20227;-63
2022/11/14 03:19:21;;;;;;;49.27;26.43;;;;;;;;;;5035135;28;20216;-63
2022/11/14 03:21:46;;;;;;;51.27;27.67;;;;;;;;;;5034981;28;20219;-63
2022/11/14 03:24:11;;;;;;;55.73;28.33;;;;;;;;;;5034993;28;20333;-63
2022/11/14 03:26:37;;;;;;;48.43;26.27;;;;;;;;;;5035282;28;20223;-63
2022/11/14 03:29:02;;;;;;;53.53;27.03;;;;;;;;;;5034135;28;20288;-63
2022/11/14 03:31:27;;;;;;;46.90;25.33;;;;;;;;;;5035206;28;20681;-63
2022/11/14 03:33:53;;;;;;;50.00;27.07;;;;;;;;;;5035408;28;20212;-63
2022/11/14 03:36:18;;;;;;;49.93;26.50;;;;;;;;;;5029109;28;20310;-63
2022/11/14 03:38:43;;;;;;;52.03;26.73;;;;;;;;;;5034918;28;20231;-63
2022/11/14 03:41:09;;;;;;;46.80;25.33;;;;;;;;;;5030125;28;20212;-63
2022/11/14 03:43:34;;;;;;;51.13;26.67;;;;;;;;;;5035954;28;20242;-63
2022/11/14 03:46:00;;;;;;;51.70;26.47;;;;;;;;;;5029044;28;20205;-63
2022/11/14 03:48:25;;;;;;;52.27;26.03;;;;;;;;;;5030956;28;20219;-63
2022/11/14 03:50:51;;;;;;;48.77;26.00;;;;;;;;;;5032083;28;20427;-63
2022/11/14 03:53:16;;;;;;;47.97;26.17;;;;;;;;;;5054409;28;20222;-63
2022/11/14 03:55:42;;;;;;;52.93;26.63;;;;;;;;;;5046554;28;20235;-63
2022/11/14 03:58:08;;;;;;;52.17;26.87;;;;;;;;;;5054149;28;20656;-63
2022/11/14 04:00:33;;;;;;;51.43;26.50;;;;;;;;;;5054473;28;20359;-63
2022/11/14 04:02:58;;;;;;;55.53;28.90;;;;;;;;;;5054026;28;20219;-63
2022/11/14 04:05:23;;;;;;;51.20;26.93;;;;;;;;;;5054228;28;20203;-63
2022/11/14 04:07:49;;;;;;;56.07;27.40;;;;;;;;;;5054739;28;20667;-63
2022/11/14 04:10:14;;;;;;;56.57;28.50;;;;;;;;;;5053255;28;20258;-63
2022/11/14 04:12:39;;;;;;;50.07;26.13;;;;;;;;;;5054557;28;20219;-63
2022/11/14 04:15:05;;;;;;;47.33;26.07;;;;;;;;;;5049230;28;20281;-63
2022/11/14 04:17:30;;;;;;;47.53;24.97;;;;;;;;;;5033550;28;20215;-63
2022/11/14 04:19:55;;;;;;;47.73;25.00;;;;;;;;;;5034549;28;20235;-63
2022/11/14 04:22:21;;;;;;;49.17;25.30;;;;;;;;;;5034027;28;20223;-63
2022/11/14 04:24:46;;;;;;;46.70;25.20;;;;;;;;;;5012703;28;20325;-63
2022/11/14 04:27:11;;;;;;;44.63;23.33;;;;;;;;;;5012289;28;20560;-63
2022/11/14 04:29:36;;;;;;;50.47;26.07;;;;;;;;;;5024583;28;20225;-63
2022/11/14 04:32:02;;;;;;;47.90;24.90;;;;;;;;;;5022993;28;20215;-63
2022/11/14 04:34:27;;;;;;;46.33;25.03;;;;;;;;;;5021060;28;20247;-63
2022/11/14 04:36:52;;;;;;;48.70;25.63;;;;;;;;;;5005888;28;20232;-63
2022/11/14 04:39:17;;;;;;;46.13;24.30;;;;;;;;;;5015565;28;20621;-63
2022/11/14 04:41:43;;;;;;;47.73;24.20;;;;;;;;;;5019423;28;20295;-63
2022/11/14 04:44:08;;;;;;;45.33;25.00;;;;;;;;;;5023712;28;20220;-63
2022/11/14 04:46:33;;;;;;;43.33;23.83;;;;;;;;;;5023286;28;20207;-64
2022/11/14 04:48:59;;;;;;;48.03;25.23;;;;;;;;;;5024417;28;20219;-64
2022/11/14 04:51:24;;;;;;;46.77;24.50;;;;;;;;;;5023548;28;20663;-64
2022/11/14 04:53:49;;;;;;;48.33;24.73;;;;;;;;;;5023429;28;20223;-64
2022/11/14 04:56:14;;;;;;;45.73;24.73;;;;;;;;;;5022413;28;20228;-64
2022/11/14 04:58:39;;;;;;;45.50;24.40;;;;;;;;;;5016822;28;20239;-64
2022/11/14 05:01:07;;;;;;;42.93;23.53;;;;;;;;;;5014044;28;20233;-64
2022/11/14 05:03:32;;;;;;;45.30;24.20;;;;;;;;;;5016654;28;20215;-64
2022/11/14 05:06:03;;;;;;;46.43;24.70;;;;;;;;;;5024290;28;20211;-64
2022/11/14 05:08:28;;;;;;;44.67;24.10;;;;;;;;;;5023711;28;20682;-64
2022/11/14 05:10:54;;;;;;;44.00;23.57;;;;;;;;;;5023942;28;20216;-64
2022/11/14 05:13:19;;;;;;;50.53;24.60;;;;;;;;;;5023070;28;20220;-64
2022/11/14 05:15:44;;;;;;;48.47;25.00;;;;;;;;;;5023438;28;20231;-64
2022/11/14 05:18:09;;;;;;;47.10;24.93;;;;;;;;;;5023411;28;20238;-64
2022/11/14 05:20:35;;;;;;;48.97;26.00;;;;;;;;;;5016812;28;20212;-64
2022/11/14 05:23:00;;;;;;;43.60;24.30;;;;;;;;;;5014750;28;20212;-64
2022/11/14 05:25:25;;;;;;;44.20;22.97;;;;;;;;;;5015374;28;20361;-64
2022/11/14 05:27:51;;;;;;;46.93;24.10;;;;;;;;;;5021504;28;20255;-64
2022/11/14 05:30:16;;;;;;;44.50;23.50;;;;;;;;;;5023378;28;20216;-63
2022/11/14 05:32:41;;;;;;;48.90;24.87;;;;;;;;;;5023109;28;20401;-64
2022/11/14 05:35:07;;;;;;;48.40;24.53;;;;;;;;;;5021992;28;20216;-64
2022/11/14 05:37:33;;;;;;;51.17;25.70;;;;;;;;;;5023508;28;20200;-64
2022/11/14 05:39:58;;;;;;;44.00;23.13;;;;;;;;;;5023578;28;20212;-63
2022/11/14 05:42:24;;;;;;;51.63;26.07;;;;;;;;;;5017969;28;20219;-64
2022/11/14 05:44:49;;;;;;;51.13;25.40;;;;;;;;;;5015873;28;20665;-64
2022/11/14 05:47:14;;;;;;;45.07;23.77;;;;;;;;;;5014306;28;20215;-64
2022/11/14 05:49:40;;;;;;;48.43;24.63;;;;;;;;;;5018635;28;20215;-64
2022/11/14 05:52:05;;;;;;;48.97;25.27;;;;;;;;;;5022951;28;20318;-64
2022/11/14 05:54:30;;;;;;;45.93;24.63;;;;;;;;;;5023110;28;20227;-64
2022/11/14 05:56:55;;;;;;;50.73;24.90;;;;;;;;;;5027778;28;20276;-64
2022/11/14 05:59:21;;;;;;;44.33;23.53;;;;;;;;;;5027951;28;20627;-64
2022/11/14 06:01:46;;;;;;;44.43;23.13;;;;;;;;;;5021949;28;20753;-64
2022/11/14 06:04:12;;;;;;;46.60;23.60;;;;;;;;;;5021720;28;20761;-64
2022/11/14 06:06:37;;;;;;;52.00;25.53;;;;;;;;;;5022876;28;20208;-63
2022/11/14 06:09:02;;;;;;;43.47;23.30;;;;;;;;;;5017864;28;20212;-63
2022/11/14 06:11:28;;;;;;;48.00;24.50;;;;;;;;;;5012928;28;20576;-63
2022/11/14 06:13:53;;;;;;;46.97;23.80;;;;;;;;;;5014445;28;20731;-63
2022/11/14 06:16:18;;;;;;;45.80;24.47;;;;;;;;;;5019125;28;20220;-63
2022/11/14 06:18:44;;;;;;;45.50;24.17;;;;;;;;;;5021881;28;20277;-63
2022/11/14 06:21:10;;;;;;;42.50;23.00;;;;;;;;;;5022261;28;20204;-63
2022/11/14 06:23:35;;;;;;;51.67;25.37;;;;;;;;;;5021856;28;20269;-64
2022/11/14 06:26:01;;;;;;;44.97;22.23;;;;;;;;;;5021784;28;20211;-63
2022/11/14 06:28:26;;;;;;;50.07;25.33;;;;;;;;;;5022582;28;20216;-63
2022/11/14 06:30:55;;;;;;;48.77;24.67;;;;;;;;;;5019847;28;20306;-63
2022/11/14 06:33:21;;;;;;;49.10;24.43;;;;;;;;;;5014336;28;20688;-63
2022/11/14 06:35:46;;;;;;;44.67;23.73;;;;;;;;;;5014119;28;20251;-63
2022/11/14 06:38:11;;;;;;;43.27;22.20;;;;;;;;;;5015759;28;20228;-63
2022/11/14 06:40:36;;;;;;;46.03;22.73;;;;;;;;;;5022483;28;20310;-63
2022/11/14 06:43:02;;;;;;;43.13;22.60;;;;;;;;;;5022321;28;20212;-63
2022/11/14 06:45:27;;;;;;;43.50;23.43;;;;;;;;;;5021787;28;20691;-63
2022/11/14 06:47:52;;;;;;;43.17;22.53;;;;;;;;;;5022351;28;20216;-63
2022/11/14 06:50:18;;;;;;;48.40;24.07;;;;;;;;;;5003854;28;20349;-63
2022/11/14 06:52:43;;;;;;;41.53;21.87;;;;;;;;;;5021807;28;20220;-63
2022/11/14 06:55:08;;;;;;;40.30;21.17;;;;;;;;;;5011846;28;20995;-63
2022/11/14 06:57:33;;;;;;;46.50;23.17;;;;;;;;;;5014471;28;20415;-63
2022/11/14 06:59:59;;;;;;;38.47;21.00;;;;;;;;;;5013803;28;20644;-63
2022/11/14 07:02:24;;;;;;;46.10;23.03;;;;;;;;;;5020528;28;20231;-63
2022/11/14 07:04:50;;;;;;;39.90;21.13;;;;;;;;;;5022077;28;20224;-63
2022/11/14 07:07:16;;;;;;;42.67;22.93;;;;;;;;;;5020839;28;20737;-63
2022/11/14 07:09:41;;;;;;;42.07;22.87;;;;;;;;;;5023658;28;20219;-63
2022/11/14 07:12:08;;;;;;;42.27;21.80;;;;;;;;;;5028755;28;20212;-63
2022/11/14 07:14:33;;;;;;;43.87;22.47;;;;;;;;;;5028447;28;20687;-63
2022/11/14 07:16:59;;;;;;;40.20;22.53;;;;;;;;;;5031902;28;20224;-65
2022/11/14 07:19:24;;;;;;;43.38;24.23;;;;;;;;;;5030647;28;20410;-63
2022/11/14 07:21:50;;;;;;;49.70;23.60;;;;;;;;;;5031252;28;20223;-62
2022/11/14 07:24:15;;;;;;;43.93;22.40;;;;;;;;;;5034215;28;20735;-62
2022/11/14 07:26:40;;;;;;;47.97;24.30;;;;;;;;;;5034434;28;20207;-62
2022/11/14 07:29:05;;;;;;;43.67;25.57;;;;;;;;;;5033442;28;20417;-63
2022/11/14 07:31:31;;;;;;;42.23;23.07;;;;;;;;;;5034931;28;20211;-62
2022/11/14 07:33:56;;;;;;;40.93;21.97;;;;;;;;;;5034301;28;20262;-62
2022/11/14 07:36:22;;;;;;;42.20;22.50;;;;;;;;;;5034637;28;20224;-62
2022/11/14 07:38:47;;;;;;;39.70;21.90;;;;;;;;;;5034436;28;20697;-62
2022/11/14 07:41:13;;;;;;;42.63;23.17;;;;;;;;;;5033025;28;20212;-61
2022/11/14 07:43:39;;;;;;;39.37;22.50;;;;;;;;;;5031930;28;20238;-62
2022/11/14 07:46:05;;;;;;;41.57;22.17;;;;;;;;;;5033896;28;20285;-62
2022/11/14 07:48:30;;;;;;;44.27;23.30;;;;;;;;;;5033873;28;20219;-62
2022/11/14 07:50:59;;;;;;;42.33;22.87;;;;;;;;;;5034044;28;20204;-63
2022/11/14 07:53:24;;;;;;;43.93;23.17;;;;;;;;;;5032014;28;20253;-63
2022/11/14 07:55:50;;;;;;;41.37;22.40;;;;;;;;;;5032954;28;20224;-62
2022/11/14 07:58:15;;;;;;;45.40;23.33;;;;;;;;;;5033552;28;20290;-63
2022/11/14 08:00:40;;;;;;;45.43;23.60;;;;;;;;;;5034395;28;20208;-63
2022/11/14 08:03:06;;;;;;;42.70;23.60;;;;;;;;;;5013427;28;20240;-63
2022/11/14 08:05:31;;;;;;;45.67;23.40;;;;;;;;;;5011203;28;20208;-63
2022/11/14 08:07:57;;;;;;;41.13;22.33;;;;;;;;;;5013775;28;20209;-63
2022/11/14 08:10:22;;;;;;;42.47;22.10;;;;;;;;;;5013761;28;20209;-63
2022/11/14 08:12:47;;;;;;;42.83;22.27;;;;;;;;;;5015202;28;20287;-63
2022/11/14 08:15:13;;;;;;;38.70;21.07;;;;;;;;;;5007622;28;20747;-64
2022/11/14 08:17:38;;;;;;;41.50;22.73;;;;;;;;;;5006334;28;20544;-62
2022/11/14 08:20:04;;;;;;;40.83;22.43;;;;;;;;;;5011875;28;20212;-62
2022/11/14 08:22:30;;;;;;;36.73;20.83;;;;;;;;;;5012904;28;20259;-63
2022/11/14 08:24:55;;;;;;;41.03;22.17;;;;;;;;;;5011381;28;20217;-62
2022/11/14 08:27:20;;;;;;;39.30;22.53;;;;;;;;;;5011685;28;20637;-62
2022/11/14 08:29:46;;;;;;;38.67;21.67;;;;;;;;;;5011516;28;20566;-62
2022/11/14 08:32:11;;;;;;;38.37;20.93;;;;;;;;;;5009123;28;20274;-62
2022/11/14 08:34:36;;;;;;;38.77;22.13;;;;;;;;;;5010429;28;20208;-62
2022/11/14 08:37:01;;;;;;;42.97;22.07;;;;;;;;;;5010642;28;20267;-62
2022/11/14 08:39:27;;;;;;;40.60;22.33;;;;;;;;;;5011936;28;20565;-63
2022/11/14 08:41:52;;;;;;;41.30;21.53;;;;;;;;;;5012205;28;20275;-62
2022/11/14 08:44:17;;;;;;;42.73;23.00;;;;;;;;;;5010714;28;20217;-62
2022/11/14 08:46:43;;;;;;;43.90;22.40;;;;;;;;;;5012098;28;20209;-62
2022/11/14 08:49:08;;;;;;;44.30;20.80;;;;;;;;;;5011526;28;20212;-63
2022/11/14 08:51:33;;;;;;;38.73;21.83;;;;;;;;;;5010609;28;20299;-62
2022/11/14 08:53:58;;;;;;;38.97;21.60;;;;;;;;;;5012040;28;20211;-62
2022/11/14 08:56:24;;;;;;;34.60;20.03;;;;;;;;;;5011139;28;20581;-62
2022/11/14 08:58:49;;;;;;;32.10;18.30;;;;;;;;;;5011122;28;20709;-62
2022/11/14 09:01:14;;;;;;;30.50;19.03;;;;;;;;;;5014563;28;20228;-62
2022/11/14 09:03:40;;;;;;;31.30;18.93;;;;;;;;;;5031622;28;20482;-62
2022/11/14 09:06:05;;;;;;;33.80;19.13;;;;;;;;;;5029831;28;20224;-62
2022/11/14 09:08:30;;;;;;;31.80;18.50;;;;;;;;;;5031141;28;20211;-62
2022/11/14 09:10:58;;;;;;;30.57;17.37;;;;;;;;;;5031277;28;20208;-62
2022/11/14 09:13:24;;;;;;;30.17;17.63;;;;;;;;;;5029967;28;20479;-62
2022/11/14 09:15:49;;;;;;;29.97;17.70;;;;;;;;;;5031167;28;20227;-62
2022/11/14 09:18:14;;;;;;;27.40;17.57;;;;;;;;;;5030699;28;20207;-62
2022/11/14 09:20:40;;;;;;;30.47;17.83;;;;;;;;;;5030126;28;20216;-62
2022/11/14 09:23:05;;;;;;;28.40;17.33;;;;;;;;;;5030124;28;20216;-63
2022/11/14 09:25:30;;;;;;;28.03;17.23;;;;;;;;;;5031054;28;20586;-62
2022/11/14 09:27:56;;;;;;;28.27;17.23;;;;;;;;;;5030161;28;20220;-63
2022/11/14 09:30:22;;;;;;;29.63;17.57;;;;;;;;;;5030311;28;20216;-62
2022/11/14 09:32:47;;;;;;;27.77;17.60;;;;;;;;;;5030896;28;20683;-63
2022/11/14 09:35:13;;;;;;;26.07;17.30;;;;;;;;;;5029649;28;20212;-62
2022/11/14 09:37:38;;;;;;;25.53;16.70;;;;;;;;;;5030195;28;20220;-63
2022/11/14 09:40:04;;;;;;;26.92;16.50;;;;;;;;;;5030367;28;20208;-63
2022/11/14 09:42:42;;;;;;;25.63;16.17;;;;;;;;;;5029665;28;20211;-63
2022/11/14 09:45:11;;;;;;;24.90;16.48;;;;;;;;;;5012495;28;20646;-63
2022/11/14 09:47:38;;;;;;;26.27;16.75;;;;;;;;;;5029750;28;20211;-63
2022/11/14 09:50:05;;;;;;;24.77;16.27;;;;;;;;;;5013000;28;20215;-63
2022/11/14 09:52:34;;;;;;;25.55;16.48;;;;;;;;;;5032067;28;20707;-63
2022/11/14 09:55:01;;;;;;;25.45;16.60;;;;;;;;;;5032039;28;20257;-63
2022/11/14 09:57:27;;;;;;;25.60;16.42;;;;;;;;;;5014410;28;20231;-63
2022/11/14 09:59:52;;;;;;;27.75;16.90;;;;;;;;;;5015061;28;20212;-63
2022/11/14 10:02:27;;;;;;;25.23;15.98;;;;;;;;;;5013541;28;20227;-63
2022/11/14 10:05:02;;;;;;;28.17;16.70;;;;;;;;;;5024621;28;20207;-64
2022/11/14 10:07:31;;;;;;;25.35;16.77;;;;;;;;;;5030536;28;20250;-62
2022/11/14 10:10:00;;;;;;;24.13;15.75;;;;;;;;;;5031519;28;20212;-62
2022/11/14 10:12:29;;;;;;;26.25;17.27;;;;;;;;;;5030692;28;20207;-62
2022/11/14 10:14:57;;;;;;;25.40;15.45;;;;;;;;;;5031128;28;20206;-62
2022/11/14 10:17:34;;;;;;;25.10;15.90;;;;;;;;;;5010726;28;20244;-62
2022/11/14 10:20:03;;;;;;;24.88;15.95;;;;;;;;;;5014862;28;20214;-62
2022/11/14 10:22:28;;;;;;;25.92;15.95;;;;;;;;;;5029771;28;20311;-62
2022/11/14 10:24:57;;;;;;;23.85;15.30;;;;;;;;;;5031467;28;20638;-62
2022/11/14 10:27:25;;;;;;;22.10;14.63;;;;;;;;;;5030335;28;20299;-62
2022/11/14 10:29:55;;;;;;;22.52;14.40;;;;;;;;;;5034634;28;20274;-62
2022/11/14 10:32:38;;;;;;;20.42;14.05;;;;;;;;;;5030605;28;20298;-62
2022/11/14 10:35:05;;;;;;;21.92;13.85;;;;;;;;;;5031866;28;20219;-62
2022/11/14 10:37:31;;;;;;;20.67;13.90;;;;;;;;;;5031049;28;20682;-62
2022/11/14 10:40:01;;;;;;;21.50;13.40;;;;;;;;;;5025833;28;20735;-62
2022/11/14 10:42:31;;;;;;;21.13;13.85;;;;;;;;;;5031704;28;20222;-62
2022/11/14 10:45:00;;;;;;;19.90;14.25;;;;;;;;;;5027972;28;20211;-62
2022/11/14 10:47:25;;;;;;;20.10;14.05;;;;;;;;;;5031278;28;20246;-62
2022/11/14 10:49:51;;;;;;;21.85;14.02;;;;;;;;;;5033910;28;20239;-62
2022/11/14 10:52:17;;;;;;;20.10;14.00;;;;;;;;;;5037594;28;20565;-62
2022/11/14 10:54:45;;;;;;;19.52;14.00;;;;;;;;;;5031788;28;20220;-62
2022/11/14 10:57:14;;;;;;;19.98;13.43;;;;;;;;;;5031501;28;20318;-62
2022/11/14 10:59:39;;;;;;;20.73;13.48;;;;;;;;;;5035284;28;20541;-62
2022/11/14 11:02:04;;;;;;;18.10;13.65;;;;;;;;;;5035312;28;20281;-62
2022/11/14 11:04:30;;;;;;;18.92;13.75;;;;;;;;;;5038084;28;20297;-63
2022/11/14 11:06:56;;;;;;;18.92;13.82;;;;;;;;;;5047959;28;20203;-62
2022/11/14 11:12:07;;;;;;;21.13;14.48;;;;;;;;;;5054517;28;20277;-63
2022/11/14 11:14:32;;;;;;;20.90;14.57;;;;;;;;;;5045863;28;20621;-62
2022/11/14 11:17:14;;;;;;;21.42;15.80;;;;;;;;;;5035650;28;20263;-62
2022/11/14 11:19:39;;;;;;;20.23;14.27;;;;;;;;;;5028973;28;20294;-63
2022/11/14 11:22:08;;;;;;;20.80;14.48;;;;;;;;;;5017011;28;20312;-64
2022/11/14 11:24:34;;;;;;;21.08;14.52;;;;;;;;;;5016508;28;20218;-62
2022/11/14 11:27:14;;;;;;;20.88;15.57;;;;;;;;;;5044852;28;20517;-62
2022/11/14 11:29:39;;;;;;;21.70;14.48;;;;;;;;;;5055031;28;20206;-63
2022/11/14 11:32:05;;;;;;;19.23;13.25;;;;;;;;;;5054775;28;20219;-63
2022/11/14 11:34:31;;;;;;;22.17;16.40;;;;;;;;;;5036758;28;20237;-63
2022/11/14 11:37:00;;;;;;;24.02;16.10;;;;;;;;;;5054886;28;20694;-63
2022/11/14 11:39:28;;;;;;;21.95;16.77;;;;;;;;;;5048011;28;20216;-63
2022/11/14 11:41:53;;;;;;;25.00;16.58;;;;;;;;;;5033952;28;20302;-63
2022/11/14 11:44:19;;;;;;;23.48;15.65;;;;;;;;;;5034703;28;20751;-62
2022/11/14 11:46:46;;;;;;;21.60;15.95;;;;;;;;;;5019804;28;20671;-63
2022/11/14 11:49:14;;;;;;;21.52;16.38;;;;;;;;;;5033858;28;20219;-63
2022/11/14 11:51:40;;;;;;;23.90;17.10;;;;;;;;;;5016581;28;20266;-63
2022/11/14 11:54:10;;;;;;;27.02;18.98;;;;;;;;;;5033900;28;20211;-63
2022/11/14 11:56:35;;;;;;;23.88;17.05;;;;;;;;;;5034620;28;20220;-62
2022/11/14 11:59:06;;;;;;;26.40;18.95;;;;;;;;;;5016890;28;20354;-63
2022/11/14 12:01:32;;;;;;;24.67;17.60;;;;;;;;;;5025613;28;20220;-62
2022/11/14 12:03:57;;;;;;;27.88;18.63;;;;;;;;;;5012999;28;20680;-62
2022/11/14 12:06:24;;;;;;;24.83;17.48;;;;;;;;;;4994585;28;20287;-62
2022/11/14 12:09:06;;;;;;;23.40;16.90;;;;;;;;;;5011447;28;20807;-62
2022/11/14 12:11:32;;;;;;;23.98;18.10;;;;;;;;;;5011926;28;20283;-62
2022/11/14 12:14:04;;;;;;;26.27;18.65;;;;;;;;;;5012760;28;20220;-62
2022/11/14 12:16:34;;;;;;;29.95;19.52;;;;;;;;;;5011503;28;20235;-62
2022/11/14 12:19:06;;;;;;;26.13;18.55;;;;;;;;;;4995390;28;20224;-62
2022/11/14 12:21:34;;;;;;;30.50;21.10;;;;;;;;;;5015543;28;20215;-62
2022/11/14 12:24:00;;;;;;;25.05;17.73;;;;;;;;;;4994361;28;20216;-62
2022/11/14 12:26:29;;;;;;;28.63;18.80;;;;;;;;;;5011892;28;20217;-62
2022/11/14 12:28:57;;;;;;;24.30;17.20;;;;;;;;;;4991679;28;20264;-62
2022/11/14 12:31:23;;;;;;;24.02;16.63;;;;;;;;;;5008626;28;20656;-63
2022/11/14 12:33:56;;;;;;;23.75;17.10;;;;;;;;;;5011321;28;20224;-62
2022/11/14 12:36:25;;;;;;;26.83;17.63;;;;;;;;;;5010448;28;20691;-61
2022/11/14 12:38:51;;;;;;;26.00;18.15;;;;;;;;;;5011683;28;20309;-62
2022/11/14 12:41:24;;;;;;;26.77;18.38;;;;;;;;;;4993792;28;20295;-62
2022/11/14 12:43:50;;;;;;;24.27;17.13;;;;;;;;;;4993815;28;20224;-61
2022/11/14 12:46:15;;;;;;;25.60;18.08;;;;;;;;;;5010322;28;20205;-61
2022/11/14 12:48:41;;;;;;;25.95;18.17;;;;;;;;;;5012010;28;20223;-61
2022/11/14 12:51:24;;;;;;;24.67;17.50;;;;;;;;;;4992796;28;20220;-62
2022/11/14 12:53:50;;;;;;;25.45;18.30;;;;;;;;;;5011799;28;20767;-61
2022/11/14 12:56:19;;;;;;;22.38;16.40;;;;;;;;;;4993687;28;20315;-61
2022/11/14 12:58:54;;;;;;;22.95;15.95;;;;;;;;;;5010854;28;20205;-61
2022/11/14 13:01:27;;;;;;;22.10;15.57;;;;;;;;;;5015366;28;20234;-62
2022/11/14 13:04:01;;;;;;;21.85;14.75;;;;;;;;;;5031200;28;20738;-62
2022/11/14 13:06:37;;;;;;;21.33;14.82;;;;;;;;;;5030333;28;20211;-61
2022/11/14 13:09:09;;;;;;;21.35;14.27;;;;;;;;;;5029866;28;20358;-62
2022/11/14 13:22:39;;;;;;;15.93;11.55;;;;;;;;;;5030571;28;20570;-62
2022/11/14 13:25:08;;;;;;;16.75;11.40;;;;;;;;;;5015058;28;20303;-62
2022/11/14 13:27:33;;;;;;;16.45;11.40;;;;;;;;;;5010698;28;20271;-61
2022/11/14 13:30:00;;;;;;;16.85;10.88;;;;;;;;;;5018932;28;20216;-62
2022/11/14 13:32:39;;;;;;;16.15;12.43;;;;;;;;;;5045411;28;20236;-62
2022/11/14 13:35:04;;;;;;;19.77;12.55;;;;;;;;;;5030492;28;20222;-62
2022/11/14 13:37:41;;;;;;;17.58;11.57;;;;;;;;;;5031021;28;20223;-62
2022/11/14 13:40:11;;;;;;;16.85;11.50;;;;;;;;;;5029767;28;20214;-62
2022/11/14 13:42:38;;;;;;;17.48;12.10;;;;;;;;;;5028012;28;20234;-61
2022/11/14 13:45:06;;;;;;;17.20;11.90;;;;;;;;;;5030477;28;20224;-62
2022/11/14 13:47:41;;;;;;;19.55;13.57;;;;;;;;;;5030007;28;20212;-61
2022/11/14 13:50:09;;;;;;;17.95;12.40;;;;;;;;;;5029006;28;20211;-61
2022/11/14 13:52:38;;;;;;;19.58;11.52;;;;;;;;;;5029415;28;20211;-61
2022/11/14 13:55:04;;;;;;;17.23;12.07;;;;;;;;;;5029746;28;20211;-61
2022/11/14 13:57:36;;;;;;;19.20;13.50;;;;;;;;;;5030492;28;20308;-61
2022/11/14 14:00:01;;;;;;;18.67;12.80;;;;;;;;;;5028849;28;20582;-62
2022/11/14 14:02:31;;;;;;;19.33;12.57;;;;;;;;;;5029594;28;20744;-61
2022/11/14 14:05:13;;;;;;;19.35;12.00;;;;;;;;;;5010744;28;20224;-62
2022/11/14 14:07:55;;;;;;;17.40;11.60;;;;;;;;;;5009933;28;20212;-62
2022/11/14 14:10:25;;;;;;;18.10;11.93;;;;;;;;;;5017609;28;20217;-66
2022/11/14 14:12:50;;;;;;;19.08;12.48;;;;;;;;;;5029036;28;20270;-64
2022/11/14 14:15:16;;;;;;;19.27;12.48;;;;;;;;;;5029161;28;20819;-62
2022/11/14 14:17:42;;;;;;;21.88;15.20;;;;;;;;;;5030788;28;20211;-62
2022/11/14 14:20:17;;;;;;;16.05;11.95;;;;;;;;;;5031745;28;20675;-62
2022/11/14 14:22:43;;;;;;;16.83;11.85;;;;;;;;;;5031550;28;20221;-62
2022/11/14 14:25:08;;;;;;;16.00;11.40;;;;;;;;;;5031896;28;20634;-62